Aviation Digital Data Service (ADDS)

Output produced by TAFs form (0710 UTC 23 February 2017)
found at http://aviationweather.gov/adds/tafs/
 
KSAF 230532Z 2306/2406 19012G18KT P6SM SCT070 BKN100 
     FM231400 24018G28KT P6SM SCT070 
     FM231800 26025G35KT P6SM SCT070